createdAt,value
2023-03-06T00:00:23.760Z,5.08
2023-03-06T00:03:10.618Z,5.07
2023-03-06T00:05:37.406Z,5.09
2023-03-06T00:08:04.731Z,5.08
2023-03-06T00:10:32.697Z,5.06
2023-03-06T00:13:04.871Z,5.06
2023-03-06T00:15:32.302Z,5.05
2023-03-06T00:17:59.666Z,4.99
2023-03-06T00:20:26.534Z,4.97
2023-03-06T00:22:56.219Z,4.92
2023-03-06T00:25:23.495Z,4.89
2023-03-06T00:27:50.729Z,4.86
2023-03-06T00:30:21.050Z,4.84
2023-03-06T00:32:48.095Z,4.83
2023-03-06T00:35:15.656Z,4.84
2023-03-06T00:37:44.444Z,4.84
2023-03-06T00:40:15.020Z,4.81
2023-03-06T00:42:42.229Z,4.77
2023-03-06T00:45:10.504Z,4.71
2023-03-06T00:47:40.013Z,4.65
2023-03-06T00:50:07.741Z,4.61
2023-03-06T00:52:35.132Z,4.53
2023-03-06T00:55:02.174Z,4.50
2023-03-06T00:57:28.933Z,4.43
2023-03-06T00:59:57.306Z,4.39
2023-03-06T01:02:24.865Z,4.32
2023-03-06T01:04:54.128Z,4.27
2023-03-06T01:07:20.988Z,4.23
2023-03-06T01:09:47.835Z,4.20
2023-03-06T01:12:14.760Z,4.21
2023-03-06T01:14:41.442Z,4.16
2023-03-06T01:17:10.095Z,4.13
2023-03-06T01:19:36.741Z,4.13
2023-03-06T01:22:03.471Z,4.10
2023-03-06T01:24:31.668Z,4.07
2023-03-06T01:26:58.768Z,4.03
2023-03-06T01:29:25.949Z,3.98
2023-03-06T01:31:52.837Z,3.90
2023-03-06T01:34:19.750Z,3.87
2023-03-06T01:36:47.812Z,3.83
2023-03-06T01:39:14.558Z,3.75
2023-03-06T01:41:41.298Z,3.67
2023-03-06T01:44:12.932Z,3.60
2023-03-06T01:46:44.369Z,3.55
2023-03-06T01:49:20.356Z,3.51
2023-03-06T01:51:52.195Z,3.44
2023-03-06T01:54:30.457Z,3.37
2023-03-06T01:57:03.015Z,3.31
2023-03-06T01:59:32.573Z,3.29
2023-03-06T02:02:01.367Z,3.30
2023-03-06T02:04:29.490Z,3.28
2023-03-06T02:07:00.001Z,3.26
2023-03-06T02:09:30.351Z,3.25
2023-03-06T02:11:57.134Z,3.25
2023-03-06T02:14:23.917Z,3.20
2023-03-06T02:16:50.982Z,3.17
2023-03-06T02:19:56.829Z,3.14
2023-03-06T02:22:29.392Z,3.12
2023-03-06T02:25:14.716Z,3.12
2023-03-06T02:27:41.530Z,3.13
2023-03-06T02:30:14.341Z,3.11
2023-03-06T02:32:41.147Z,3.10
2023-03-06T02:35:19.089Z,3.05
2023-03-06T02:37:46.507Z,3.03
2023-03-06T02:40:15.710Z,2.98
2023-03-06T02:42:50.702Z,2.86
2023-03-06T02:45:25.389Z,2.84
2023-03-06T02:47:52.122Z,2.82
2023-03-06T02:50:18.839Z,2.80
2023-03-06T02:52:45.689Z,2.78
2023-03-06T02:55:12.635Z,2.76
2023-03-06T02:57:40.702Z,2.75
2023-03-06T03:00:08.229Z,2.73
2023-03-06T03:02:35.201Z,2.70
2023-03-06T03:05:02.486Z,2.68
2023-03-06T03:07:29.543Z,2.63
2023-03-06T03:09:56.345Z,2.59
2023-03-06T03:12:23.905Z,2.55
2023-03-06T03:14:50.567Z,2.49
2023-03-06T03:17:17.327Z,2.44
2023-03-06T03:19:46.293Z,2.38
2023-03-06T03:22:13.287Z,2.34
2023-03-06T03:24:41.463Z,2.33
2023-03-06T03:27:09.796Z,2.29
2023-03-06T03:29:36.443Z,2.17
2023-03-06T03:32:04.394Z,1.98
2023-03-06T03:34:31.292Z,1.85
2023-03-06T03:36:58.113Z,1.71
2023-03-06T03:39:24.922Z,1.60
2023-03-06T03:41:51.861Z,1.53
2023-03-06T03:44:19.210Z,1.46
2023-03-06T03:46:46.042Z,1.41
2023-03-06T03:49:16.857Z,1.40
2023-03-06T03:51:44.250Z,1.38
2023-03-06T03:54:11.073Z,1.35
2023-03-06T03:56:41.312Z,1.37
2023-03-06T03:59:13.998Z,1.40
2023-03-06T04:01:47.598Z,1.39
2023-03-06T04:04:15.159Z,1.37
2023-03-06T04:06:42.025Z,1.37
2023-03-06T04:09:09.247Z,1.32
2023-03-06T04:11:36.404Z,1.30
2023-03-06T04:14:03.556Z,1.25
2023-03-06T04:16:30.846Z,1.21
2023-03-06T04:18:57.913Z,1.19
2023-03-06T04:21:24.952Z,1.18
2023-03-06T04:23:52.052Z,1.17
2023-03-06T04:26:19.914Z,1.17
2023-03-06T04:28:46.833Z,1.17
2023-03-06T04:31:14.147Z,1.18
2023-03-06T04:33:40.956Z,1.18
2023-03-06T04:36:22.040Z,1.13
2023-03-06T04:38:48.739Z,1.04
2023-03-06T04:41:15.921Z,1.01
2023-03-06T04:43:43.093Z,0.98
2023-03-06T04:46:10.972Z,0.93
2023-03-06T04:48:38.000Z,0.89
2023-03-06T04:51:04.908Z,0.90
2023-03-06T04:53:32.267Z,0.88
2023-03-06T04:55:59.234Z,0.85
2023-03-06T04:58:26.083Z,0.79
2023-03-06T05:00:53.082Z,0.76
2023-03-06T05:03:19.771Z,0.77
2023-03-06T05:05:46.591Z,0.72
2023-03-06T05:08:15.262Z,0.61
2023-03-06T05:10:43.141Z,0.54
2023-03-06T05:13:10.207Z,0.51
2023-03-06T05:15:39.534Z,0.52
2023-03-06T05:18:06.261Z,0.50
2023-03-06T05:20:33.193Z,0.47
2023-03-06T05:22:59.932Z,0.53
2023-03-06T05:25:26.676Z,0.67
2023-03-06T05:27:53.624Z,0.81
2023-03-06T05:30:22.607Z,0.93
2023-03-06T05:32:50.009Z,1.05
2023-03-06T05:35:19.836Z,1.16
2023-03-06T05:37:47.559Z,1.28
2023-03-06T05:40:16.229Z,1.39
2023-03-06T05:42:43.384Z,1.47
2023-03-06T05:45:11.043Z,1.58
2023-03-06T05:47:38.021Z,1.68
2023-03-06T05:50:05.179Z,1.76
2023-03-06T05:52:31.807Z,1.86
2023-03-06T05:54:58.485Z,1.94
2023-03-06T05:57:25.149Z,2.03
2023-03-06T05:59:52.203Z,2.11
2023-03-06T06:02:19.295Z,2.20
2023-03-06T06:04:46.606Z,2.30
2023-03-06T06:07:15.498Z,2.39
2023-03-06T06:09:44.918Z,2.46
2023-03-06T06:12:12.256Z,2.52
2023-03-06T06:14:39.096Z,2.57
2023-03-06T06:17:05.735Z,2.62
2023-03-06T06:19:32.446Z,2.60
2023-03-06T06:22:01.988Z,2.58
2023-03-06T06:24:30.045Z,2.67
2023-03-06T06:26:58.103Z,2.78
2023-03-06T06:29:26.688Z,2.92
2023-03-06T06:31:54.693Z,3.05
2023-03-06T06:34:22.644Z,3.19
2023-03-06T06:36:52.240Z,3.25
2023-03-06T06:39:22.202Z,3.39
2023-03-06T06:42:05.431Z,3.58
2023-03-06T06:44:38.082Z,3.84
2023-03-06T06:47:23.476Z,4.00
2023-03-06T06:49:53.561Z,4.17
2023-03-06T06:52:20.977Z,4.34
2023-03-06T06:54:47.880Z,4.54
2023-03-06T06:57:15.471Z,5.02
2023-03-06T06:59:42.685Z,6.53
2023-03-06T07:02:15.983Z,8.51
2023-03-06T07:04:56.510Z,10.11
2023-03-06T07:07:29.463Z,11.98
2023-03-06T07:09:56.373Z,13.46
2023-03-06T07:12:23.223Z,14.87
2023-03-06T07:14:50.872Z,16.05
2023-03-06T07:17:17.750Z,17.13
2023-03-06T07:19:44.802Z,17.73
2023-03-06T07:22:12.015Z,18.30
2023-03-06T07:24:38.757Z,18.73
2023-03-06T07:27:05.710Z,18.89
2023-03-06T07:29:33.890Z,18.63
2023-03-06T07:32:01.387Z,18.54
2023-03-06T07:34:28.297Z,17.81
2023-03-06T07:36:55.347Z,17.01
2023-03-06T07:39:21.978Z,16.38
2023-03-06T07:41:48.608Z,15.80
2023-03-06T07:44:15.257Z,15.14
2023-03-06T07:46:42.049Z,14.48
2023-03-06T07:49:08.943Z,14.10
2023-03-06T07:51:35.473Z,14.67
2023-03-06T07:54:02.219Z,15.49
2023-03-06T07:56:29.260Z,15.16
2023-03-06T07:58:57.046Z,14.79
2023-03-06T08:01:24.689Z,14.85
2023-03-06T08:03:51.863Z,14.82
2023-03-06T08:06:24.536Z,14.72
2023-03-06T08:08:53.076Z,14.33
2023-03-06T08:11:22.193Z,13.96
2023-03-06T08:13:52.116Z,13.65
2023-03-06T08:16:24.431Z,13.36
2023-03-06T08:18:51.526Z,13.04
2023-03-06T08:21:20.914Z,12.85
2023-03-06T08:23:47.694Z,12.93
2023-03-06T08:26:20.672Z,13.13
2023-03-06T08:28:47.933Z,13.37
2023-03-06T08:31:30.748Z,13.65
2023-03-06T08:34:00.457Z,13.79
2023-03-06T08:36:27.812Z,13.93
2023-03-06T08:38:54.862Z,14.15
2023-03-06T08:41:21.685Z,14.19
2023-03-06T08:43:49.099Z,14.35
2023-03-06T08:46:18.232Z,14.76
2023-03-06T08:48:47.503Z,14.88
2023-03-06T08:51:15.105Z,14.81
2023-03-06T08:53:43.993Z,15.05
2023-03-06T08:56:26.613Z,15.28
2023-03-06T08:58:54.369Z,15.26
2023-03-06T09:01:27.148Z,15.10
2023-03-06T09:03:56.271Z,15.16
2023-03-06T09:06:24.036Z,15.30
2023-03-06T09:08:52.406Z,15.35
2023-03-06T09:11:20.533Z,15.44
2023-03-06T09:13:47.221Z,15.79
2023-03-06T09:16:14.100Z,15.83
2023-03-06T09:18:41.397Z,15.67
2023-03-06T09:21:09.282Z,15.80
2023-03-06T09:23:38.843Z,15.96
2023-03-06T09:26:06.950Z,15.68
2023-03-06T09:28:38.399Z,15.50
2023-03-06T09:31:09.627Z,15.43
2023-03-06T09:33:37.236Z,15.46
2023-03-06T09:36:05.674Z,15.57
2023-03-06T09:38:32.781Z,15.43
2023-03-06T09:41:02.521Z,14.97
2023-03-06T09:43:40.053Z,14.64
2023-03-06T09:46:22.909Z,14.52
2023-03-06T09:49:22.536Z,14.33
2023-03-06T09:52:16.553Z,14.26
2023-03-06T09:54:46.546Z,13.87
2023-03-06T09:57:35.676Z,13.76
2023-03-06T10:00:14.046Z,13.94
2023-03-06T10:02:49.719Z,14.81
2023-03-06T10:05:24.347Z,15.97
2023-03-06T10:07:57.926Z,15.41
2023-03-06T10:10:32.590Z,15.02
2023-03-06T10:13:05.427Z,15.18
2023-03-06T10:15:36.576Z,15.26
2023-03-06T10:18:04.756Z,15.05
2023-03-06T10:20:40.522Z,14.94
2023-03-06T10:23:31.912Z,14.61
2023-03-06T10:26:11.194Z,13.71
2023-03-06T10:28:45.837Z,13.69
2023-03-06T10:31:21.916Z,13.63
2023-03-06T10:33:51.711Z,13.51
2023-03-06T10:36:21.773Z,13.53
2023-03-06T10:38:48.746Z,13.92
2023-03-06T10:41:35.174Z,13.81
2023-03-06T10:44:04.664Z,13.89
2023-03-06T10:46:52.899Z,14.06
2023-03-06T10:49:37.219Z,14.16
2023-03-06T10:52:21.272Z,14.62
2023-03-06T10:54:48.625Z,15.48
2023-03-06T10:57:30.541Z,15.31
2023-03-06T11:00:03.908Z,14.99
2023-03-06T11:02:35.849Z,14.73
2023-03-06T11:05:04.367Z,14.53
2023-03-06T11:07:33.469Z,14.23
2023-03-06T11:10:20.523Z,13.92
2023-03-06T11:12:57.819Z,13.74
2023-03-06T11:15:29.398Z,13.79
2023-03-06T11:18:04.605Z,15.18
2023-03-06T11:20:48.575Z,16.43
2023-03-06T11:23:24.769Z,16.39
2023-03-06T11:26:16.385Z,16.88
2023-03-06T11:28:57.293Z,17.57
2023-03-06T11:31:31.170Z,17.48
2023-03-06T11:34:08.498Z,17.30
2023-03-06T11:36:57.834Z,17.28
2023-03-06T11:39:43.000Z,17.92
2023-03-06T11:42:48.236Z,17.70
2023-03-06T11:45:36.285Z,18.14
2023-03-06T11:48:21.353Z,19.30
2023-03-06T11:50:53.236Z,20.16
2023-03-06T11:53:27.218Z,20.08
2023-03-06T11:56:04.883Z,20.08
2023-03-06T11:58:59.423Z,20.12
2023-03-06T12:01:46.606Z,20.79
2023-03-06T12:04:34.467Z,20.20
2023-03-06T12:07:31.332Z,19.62
2023-03-06T12:10:13.927Z,19.32
2023-03-06T12:13:06.680Z,19.13
2023-03-06T12:15:36.384Z,20.17
2023-03-06T12:18:18.295Z,21.46
2023-03-06T12:21:06.896Z,22.71
2023-03-06T12:23:48.542Z,22.70
2023-03-06T12:27:03.002Z,21.66
2023-03-06T12:29:41.593Z,20.97
2023-03-06T12:32:45.465Z,19.87
2023-03-06T12:35:47.442Z,18.90
2023-03-06T12:38:37.433Z,18.60
2023-03-06T12:41:21.214Z,17.89
2023-03-06T12:44:03.310Z,17.21
2023-03-06T12:46:34.397Z,16.66
2023-03-06T12:49:08.761Z,17.90
2023-03-06T12:51:37.055Z,18.52
2023-03-06T12:54:03.801Z,18.09
2023-03-06T12:56:32.277Z,17.90
2023-03-06T12:59:02.281Z,17.56
2023-03-06T13:01:47.379Z,17.30
2023-03-06T13:04:35.928Z,17.19
2023-03-06T13:07:30.389Z,17.14
2023-03-06T13:10:23.454Z,16.87
2023-03-06T13:12:57.451Z,16.23
2023-03-06T13:15:36.520Z,15.75
2023-03-06T13:18:21.369Z,15.95
2023-03-06T13:20:48.620Z,17.08
2023-03-06T13:23:37.675Z,17.06
2023-03-06T13:26:31.246Z,18.09
2023-03-06T13:28:58.108Z,19.05
2023-03-06T13:31:53.216Z,19.73
2023-03-06T13:34:46.134Z,20.46
2023-03-06T13:37:12.866Z,19.97
2023-03-06T13:39:51.918Z,18.69
2023-03-06T13:42:31.252Z,17.80
2023-03-06T13:45:14.577Z,17.00
2023-03-06T13:48:14.132Z,16.19
2023-03-06T13:50:39.197Z,15.51
2023-03-06T13:53:27.506Z,15.02
2023-03-06T13:56:26.779Z,14.59
2023-03-06T13:59:27.073Z,14.40
2023-03-06T14:01:54.541Z,14.29
2023-03-06T14:04:30.934Z,14.24
2023-03-06T14:07:24.772Z,14.05
2023-03-06T14:10:17.417Z,13.71
2023-03-06T14:12:50.307Z,13.01
2023-03-06T14:15:35.013Z,12.62
2023-03-06T14:18:05.692Z,12.33
2023-03-06T14:20:38.483Z,12.11
2023-03-06T14:23:28.158Z,11.98
2023-03-06T14:26:16.753Z,11.94
2023-03-06T14:28:51.355Z,12.00
2023-03-06T14:31:20.993Z,12.07
2023-03-06T14:33:56.699Z,12.04
2023-03-06T14:36:41.555Z,11.92
2023-03-06T14:39:14.783Z,11.70
2023-03-06T14:41:41.490Z,11.51
2023-03-06T14:44:09.776Z,11.39
2023-03-06T14:46:36.446Z,11.31
2023-03-06T14:49:07.037Z,11.21
2023-03-06T14:51:42.449Z,11.11
2023-03-06T14:54:16.787Z,11.05
2023-03-06T14:56:50.426Z,11.11
2023-03-06T14:59:24.547Z,11.25
2023-03-06T15:01:56.523Z,11.13
2023-03-06T15:04:41.448Z,11.00
2023-03-06T15:07:15.625Z,10.86
2023-03-06T15:09:53.799Z,10.81
2023-03-06T15:12:20.615Z,10.75
2023-03-06T15:14:59.441Z,10.68
2023-03-06T15:17:32.049Z,10.57
2023-03-06T15:20:00.522Z,10.45
2023-03-06T15:22:43.111Z,10.34
2023-03-06T15:25:31.425Z,10.20
2023-03-06T15:28:03.118Z,10.06
2023-03-06T15:30:33.852Z,9.94
2023-03-06T15:33:17.695Z,9.80
2023-03-06T15:36:21.042Z,9.69
2023-03-06T15:38:47.731Z,9.51
2023-03-06T15:41:31.267Z,9.32
2023-03-06T15:43:59.544Z,9.16
2023-03-06T15:46:26.992Z,8.97
2023-03-06T15:49:02.955Z,8.85
2023-03-06T15:51:31.646Z,8.78
2023-03-06T15:54:11.392Z,8.70
2023-03-06T15:56:41.260Z,8.66
2023-03-06T15:59:21.883Z,8.59
2023-03-06T16:01:49.743Z,8.58
2023-03-06T16:04:17.762Z,8.59
2023-03-06T16:06:45.262Z,8.60
2023-03-06T16:09:13.256Z,8.60
2023-03-06T16:11:44.358Z,8.61
2023-03-06T16:14:23.348Z,8.60
2023-03-06T16:16:51.990Z,8.56
2023-03-06T16:19:26.848Z,8.50
2023-03-06T16:21:55.705Z,8.47
2023-03-06T16:24:24.297Z,8.45
2023-03-06T16:26:52.999Z,8.44
2023-03-06T16:29:25.448Z,8.40
2023-03-06T16:31:54.766Z,8.36
2023-03-06T16:34:21.899Z,8.31
2023-03-06T16:36:49.711Z,8.23
2023-03-06T16:39:19.744Z,8.17
2023-03-06T16:41:46.806Z,8.13
2023-03-06T16:44:13.697Z,8.10
2023-03-06T16:46:46.440Z,8.07
2023-03-06T16:49:24.245Z,8.07
2023-03-06T16:51:53.003Z,8.04
2023-03-06T16:54:22.648Z,7.95
2023-03-06T16:56:49.288Z,7.86
2023-03-06T16:59:16.053Z,7.81
2023-03-06T17:01:42.852Z,7.83
2023-03-06T17:04:10.840Z,7.89
2023-03-06T17:06:37.900Z,7.92
2023-03-06T17:09:04.741Z,7.97
2023-03-06T17:11:31.686Z,7.94
2023-03-06T17:13:58.416Z,7.79
2023-03-06T17:16:25.059Z,7.63
2023-03-06T17:18:51.904Z,7.44
2023-03-06T17:21:18.649Z,7.17
2023-03-06T17:23:46.081Z,7.02
2023-03-06T17:26:17.452Z,6.84
2023-03-06T17:28:45.320Z,6.67
2023-03-06T17:31:12.340Z,6.53
2023-03-06T17:33:39.538Z,6.35
2023-03-06T17:36:07.288Z,6.23
2023-03-06T17:38:34.762Z,6.16
2023-03-06T17:41:06.176Z,6.04
2023-03-06T17:43:33.214Z,6.00
2023-03-06T17:46:04.197Z,5.91
2023-03-06T17:48:31.021Z,5.89
2023-03-06T17:50:57.762Z,5.91
2023-03-06T17:53:24.583Z,5.90
2023-03-06T17:55:51.758Z,5.90
2023-03-06T17:58:18.559Z,5.93
2023-03-06T18:00:45.643Z,5.90
2023-03-06T18:03:12.217Z,5.90
2023-03-06T18:05:39.126Z,5.87
2023-03-06T18:08:07.810Z,5.81
2023-03-06T18:10:34.656Z,5.71
2023-03-06T18:13:01.597Z,5.53
2023-03-06T18:15:28.283Z,5.38
2023-03-06T18:17:56.196Z,5.27
2023-03-06T18:20:22.962Z,5.23
2023-03-06T18:22:49.683Z,5.19
2023-03-06T18:25:17.101Z,5.17
2023-03-06T18:27:43.736Z,5.10
2023-03-06T18:30:11.025Z,5.07
2023-03-06T18:32:38.134Z,5.08
2023-03-06T18:35:05.535Z,5.14
2023-03-06T18:37:32.148Z,5.26
2023-03-06T18:39:59.021Z,5.43
2023-03-06T18:42:26.187Z,5.59
2023-03-06T18:44:52.924Z,5.77
2023-03-06T18:47:19.789Z,5.93
2023-03-06T18:49:46.543Z,6.08
2023-03-06T18:52:13.166Z,6.22
2023-03-06T18:54:40.285Z,6.34
2023-03-06T18:57:06.884Z,6.42
2023-03-06T18:59:33.562Z,6.52
2023-03-06T19:02:00.435Z,6.59
2023-03-06T19:04:27.611Z,6.68
2023-03-06T19:06:54.640Z,6.77
2023-03-06T19:09:21.765Z,6.86
2023-03-06T19:11:49.211Z,6.93
2023-03-06T19:14:16.060Z,7.00
2023-03-06T19:16:42.732Z,7.03
2023-03-06T19:19:09.647Z,6.96
2023-03-06T19:21:36.137Z,6.80
2023-03-06T19:24:06.910Z,6.66
2023-03-06T19:26:33.649Z,6.56
2023-03-06T19:29:00.296Z,6.52
2023-03-06T19:31:28.047Z,6.56
2023-03-06T19:33:56.229Z,6.53
2023-03-06T19:36:26.857Z,6.53
2023-03-06T19:38:58.135Z,6.51
2023-03-06T19:41:25.566Z,6.52
2023-03-06T19:43:55.177Z,6.60
2023-03-06T19:46:22.740Z,6.71
2023-03-06T19:48:58.093Z,6.75
2023-03-06T19:51:26.274Z,6.77
2023-03-06T19:53:53.602Z,6.78
2023-03-06T19:56:23.028Z,6.79
2023-03-06T19:58:50.472Z,6.78
2023-03-06T20:01:19.772Z,6.81
2023-03-06T20:03:46.790Z,6.82
2023-03-06T20:06:16.969Z,6.82
2023-03-06T20:08:45.042Z,6.84
2023-03-06T20:11:23.818Z,6.84
2023-03-06T20:13:50.806Z,6.77
2023-03-06T20:16:18.227Z,6.79
2023-03-06T20:18:45.276Z,6.79
2023-03-06T20:21:12.315Z,6.80
2023-03-06T20:23:39.490Z,6.56
2023-03-06T20:26:09.094Z,6.50
2023-03-06T20:28:36.630Z,6.43
2023-03-06T20:31:24.433Z,6.22
2023-03-06T20:33:53.353Z,6.06
2023-03-06T20:36:29.115Z,5.94
2023-03-06T20:38:58.515Z,5.90
2023-03-06T20:41:27.913Z,5.88
2023-03-06T20:43:54.662Z,5.84
2023-03-06T20:46:22.779Z,5.77
2023-03-06T20:48:51.621Z,5.72
2023-03-06T20:51:18.264Z,5.66
2023-03-06T20:53:50.051Z,5.66
2023-03-06T20:56:19.708Z,5.70
2023-03-06T20:58:46.858Z,5.70
2023-03-06T21:01:24.765Z,5.75
2023-03-06T21:03:54.292Z,5.85
2023-03-06T21:06:21.135Z,5.95
2023-03-06T21:08:48.605Z,6.03
2023-03-06T21:11:16.351Z,6.11
2023-03-06T21:13:43.462Z,6.13
2023-03-06T21:16:13.432Z,6.18
2023-03-06T21:18:40.470Z,6.23
2023-03-06T21:21:10.080Z,6.30
2023-03-06T21:23:37.543Z,6.41
2023-03-06T21:26:04.587Z,6.52
2023-03-06T21:28:31.773Z,6.61
2023-03-06T21:31:02.077Z,6.70
2023-03-06T21:33:28.997Z,6.77
2023-03-06T21:35:55.786Z,6.82
2023-03-06T21:38:23.000Z,6.86
2023-03-06T21:40:50.041Z,6.86
2023-03-06T21:43:17.045Z,6.81
2023-03-06T21:45:45.469Z,6.82
2023-03-06T21:48:13.442Z,6.87
2023-03-06T21:50:41.003Z,6.88
2023-03-06T21:53:09.068Z,6.94
2023-03-06T21:55:40.976Z,7.02
2023-03-06T21:58:07.561Z,7.08
2023-03-06T22:00:35.743Z,7.12
2023-03-06T22:03:04.023Z,7.16
2023-03-06T22:05:33.733Z,7.19
2023-03-06T22:08:00.383Z,7.21
2023-03-06T22:10:27.622Z,7.21
2023-03-06T22:12:54.230Z,7.20
2023-03-06T22:15:21.171Z,7.09
2023-03-06T22:17:48.151Z,7.03
2023-03-06T22:20:15.101Z,7.03
2023-03-06T22:22:43.108Z,7.00
2023-03-06T22:25:11.345Z,6.98
2023-03-06T22:27:37.945Z,6.97
2023-03-06T22:30:05.151Z,6.97
2023-03-06T22:32:32.430Z,6.98
2023-03-06T22:34:59.325Z,6.98
2023-03-06T22:37:26.064Z,6.93
2023-03-06T22:39:52.744Z,6.83
2023-03-06T22:42:19.512Z,6.82
2023-03-06T22:44:46.287Z,6.83
2023-03-06T22:47:13.120Z,6.82
2023-03-06T22:49:39.916Z,6.84
2023-03-06T22:52:06.707Z,6.78
2023-03-06T22:54:33.362Z,6.73
2023-03-06T22:57:00.196Z,6.71
2023-03-06T22:59:27.136Z,6.64
2023-03-06T23:01:53.983Z,6.58
2023-03-06T23:04:20.720Z,6.55
2023-03-06T23:06:47.670Z,6.55
2023-03-06T23:09:19.934Z,6.59
2023-03-06T23:12:04.981Z,6.63
2023-03-06T23:14:50.645Z,6.64
2023-03-06T23:17:36.271Z,6.64
2023-03-06T23:20:21.333Z,6.67
2023-03-06T23:23:06.829Z,6.73
2023-03-06T23:25:43.709Z,6.75
2023-03-06T23:28:11.161Z,6.75
2023-03-06T23:30:39.089Z,6.53
2023-03-06T23:33:06.593Z,6.11
2023-03-06T23:35:34.925Z,5.73
2023-03-06T23:38:02.031Z,5.46
2023-03-06T23:40:29.688Z,5.15
2023-03-06T23:42:56.561Z,4.78
2023-03-06T23:45:23.372Z,4.46
2023-03-06T23:47:50.228Z,4.19
2023-03-06T23:50:17.546Z,4.01
2023-03-06T23:52:44.935Z,3.86
2023-03-06T23:55:11.975Z,3.77
2023-03-06T23:57:38.709Z,3.72
